createdAt,value
2023-12-31T00:01:07.268Z,100550.88
2023-12-31T00:04:30.473Z,100546.72
2023-12-31T00:07:56.190Z,100542.31
2023-12-31T00:11:19.008Z,100538.22
2023-12-31T00:14:41.583Z,100545.94
2023-12-31T00:18:06.714Z,100543.16
2023-12-31T00:21:29.288Z,100546.88
2023-12-31T00:24:55.938Z,100541.28
2023-12-31T00:28:20.846Z,100531.16
2023-12-31T00:31:46.433Z,100532.31
2023-12-31T00:35:11.611Z,100519.09
2023-12-31T00:38:34.333Z,100527.28
2023-12-31T00:42:00.045Z,100528.31
2023-12-31T00:45:22.925Z,100521.31
2023-12-31T00:48:45.295Z,100528.47
2023-12-31T00:52:10.077Z,100524.97
2023-12-31T00:55:39.445Z,100528.16
2023-12-31T00:59:03.696Z,100526.34
2023-12-31T01:02:28.469Z,100525.53
2023-12-31T01:05:51.523Z,100522.88
2023-12-31T01:09:15.594Z,100529.63
2023-12-31T01:12:38.280Z,100529.47
2023-12-31T01:16:03.306Z,100525.75
2023-12-31T01:19:33.544Z,100528.25
2023-12-31T01:22:57.220Z,100526.00
2023-12-31T01:26:25.413Z,100524.81
2023-12-31T01:29:47.846Z,100522.63
2023-12-31T01:33:11.449Z,100524.66
2023-12-31T01:36:36.779Z,100513.97
2023-12-31T01:40:01.456Z,100507.72
2023-12-31T01:43:25.785Z,100507.91
2023-12-31T01:46:48.625Z,100506.66
2023-12-31T01:50:12.241Z,100509.69
2023-12-31T01:53:36.507Z,100506.84
2023-12-31T01:56:59.261Z,100501.47
2023-12-31T02:00:23.434Z,100499.94
2023-12-31T02:03:46.366Z,100495.75
2023-12-31T02:07:10.917Z,100510.19
2023-12-31T02:10:33.549Z,100496.56
2023-12-31T02:13:56.049Z,100497.22
2023-12-31T02:17:21.759Z,100494.00
2023-12-31T02:20:45.697Z,100494.37
2023-12-31T02:24:10.685Z,100486.16
2023-12-31T02:27:34.517Z,100478.03
2023-12-31T02:30:59.708Z,100479.69
2023-12-31T02:34:22.444Z,100472.31
2023-12-31T02:37:45.046Z,100469.81
2023-12-31T02:41:08.782Z,100469.72
2023-12-31T02:44:33.462Z,100473.50
2023-12-31T02:47:58.847Z,100464.53
2023-12-31T02:51:21.697Z,100463.06
2023-12-31T02:54:46.887Z,100474.06
2023-12-31T02:58:10.077Z,100470.78
2023-12-31T03:01:34.330Z,100474.78
2023-12-31T03:04:57.065Z,100473.44
2023-12-31T03:08:22.008Z,100474.13
2023-12-31T03:11:44.803Z,100464.34
2023-12-31T03:15:09.951Z,100467.87
2023-12-31T03:18:34.671Z,100459.03
2023-12-31T03:21:57.227Z,100455.75
2023-12-31T03:25:19.868Z,100459.69
2023-12-31T03:28:42.784Z,100465.00
2023-12-31T03:32:05.992Z,100453.81
2023-12-31T03:35:30.652Z,100454.16
2023-12-31T03:38:53.584Z,100448.00
2023-12-31T03:42:16.390Z,100450.56
2023-12-31T03:45:38.949Z,100442.97
2023-12-31T03:49:02.484Z,100437.78
2023-12-31T03:52:26.521Z,100441.34
2023-12-31T03:55:49.382Z,100436.94
2023-12-31T03:59:14.232Z,100427.59
2023-12-31T04:02:36.718Z,100431.34
2023-12-31T04:06:06.063Z,100421.25
2023-12-31T04:09:32.823Z,100419.19
2023-12-31T04:12:55.701Z,100427.53
2023-12-31T04:16:18.234Z,100423.03
2023-12-31T04:19:42.063Z,100423.81
2023-12-31T04:23:05.361Z,100419.03
2023-12-31T04:26:29.503Z,100416.44
2023-12-31T04:29:52.904Z,100412.56
2023-12-31T04:33:16.204Z,100415.47
2023-12-31T04:36:39.039Z,100410.94
2023-12-31T04:40:02.317Z,100407.63
2023-12-31T04:43:26.933Z,100404.91
2023-12-31T04:46:50.154Z,100406.66
2023-12-31T04:50:21.847Z,100408.41
2023-12-31T04:53:44.798Z,100407.31
2023-12-31T04:57:07.516Z,100409.09
2023-12-31T05:00:31.492Z,100405.06
2023-12-31T05:03:54.237Z,100403.41
2023-12-31T05:07:18.632Z,100408.94
2023-12-31T05:10:41.972Z,100414.41
2023-12-31T05:14:06.039Z,100408.06
2023-12-31T05:17:30.053Z,100412.12
2023-12-31T05:20:53.399Z,100417.94
2023-12-31T05:24:16.105Z,100421.88
2023-12-31T05:27:38.736Z,100411.41
2023-12-31T05:31:01.574Z,100407.59
2023-12-31T05:34:28.481Z,100413.44
2023-12-31T05:37:50.696Z,100408.78
2023-12-31T05:41:15.822Z,100419.06
2023-12-31T05:44:38.386Z,100418.84
2023-12-31T05:48:01.162Z,100415.69
2023-12-31T05:51:25.666Z,100416.59
2023-12-31T05:54:48.336Z,100414.59
2023-12-31T05:58:10.646Z,100418.91
2023-12-31T06:01:33.224Z,100421.03
2023-12-31T06:04:58.332Z,100407.81
2023-12-31T06:08:22.413Z,100408.84
2023-12-31T06:11:48.105Z,100404.25
2023-12-31T06:15:12.542Z,100410.03
2023-12-31T06:18:35.239Z,100404.56
2023-12-31T06:21:58.428Z,100418.34
2023-12-31T06:25:22.830Z,100411.13
2023-12-31T06:28:45.520Z,100410.09
2023-12-31T06:32:11.288Z,100411.13
2023-12-31T06:35:33.783Z,100409.44
2023-12-31T06:38:56.412Z,100415.25
2023-12-31T06:42:23.427Z,100407.59
2023-12-31T06:45:46.436Z,100403.63
2023-12-31T06:49:12.065Z,100396.84
2023-12-31T06:52:34.709Z,100396.75
2023-12-31T06:55:57.499Z,100396.84
2023-12-31T06:59:21.677Z,100392.16
2023-12-31T07:02:44.667Z,100403.50
2023-12-31T07:06:08.961Z,100397.22
2023-12-31T07:09:34.140Z,100396.94
2023-12-31T07:12:57.138Z,100401.56
2023-12-31T07:16:23.253Z,100396.53
2023-12-31T07:19:48.845Z,100387.44
2023-12-31T07:23:11.646Z,100389.59
2023-12-31T07:26:36.552Z,100402.59
2023-12-31T07:30:03.010Z,100401.62
2023-12-31T07:33:26.958Z,100400.88
2023-12-31T07:36:49.627Z,100396.50
2023-12-31T07:40:12.942Z,100392.28
2023-12-31T07:43:35.720Z,100391.28
2023-12-31T07:46:59.012Z,100380.00
2023-12-31T07:50:22.996Z,100386.34
2023-12-31T07:53:48.946Z,100381.78
2023-12-31T07:57:11.630Z,100388.91
2023-12-31T08:00:34.739Z,100383.00
2023-12-31T08:03:57.797Z,100378.53
2023-12-31T08:07:25.596Z,100378.59
2023-12-31T08:10:51.474Z,100373.81
2023-12-31T08:14:14.242Z,100367.19
2023-12-31T08:17:42.616Z,100372.25
2023-12-31T08:21:11.003Z,100369.06
2023-12-31T08:24:36.818Z,100369.97
2023-12-31T08:28:01.951Z,100369.00
2023-12-31T08:31:24.951Z,100358.22
2023-12-31T08:34:47.742Z,100366.78
2023-12-31T08:38:11.008Z,100378.88
2023-12-31T08:41:36.303Z,100369.91
2023-12-31T08:45:06.514Z,100374.31
2023-12-31T08:48:29.797Z,100380.72
2023-12-31T08:51:52.409Z,100376.59
2023-12-31T08:55:15.418Z,100379.50
2023-12-31T08:58:39.892Z,100376.94
2023-12-31T09:02:02.588Z,100361.84
2023-12-31T09:05:25.460Z,100364.25
2023-12-31T09:08:48.044Z,100358.81
2023-12-31T09:12:10.846Z,100366.00
2023-12-31T09:15:36.621Z,100359.53
2023-12-31T09:19:02.869Z,100359.41
2023-12-31T09:22:27.506Z,100366.78
2023-12-31T09:25:50.515Z,100366.91
2023-12-31T09:29:13.388Z,100363.53
2023-12-31T09:32:37.910Z,100355.09
2023-12-31T09:36:00.419Z,100352.25
2023-12-31T09:39:23.071Z,100350.66
2023-12-31T09:42:50.239Z,100355.87
2023-12-31T09:46:13.487Z,100357.75
2023-12-31T09:49:38.122Z,100341.28
2023-12-31T09:53:01.291Z,100339.03
2023-12-31T09:56:24.481Z,100343.53
2023-12-31T09:59:50.020Z,100325.63
2023-12-31T10:03:22.167Z,100326.84
2023-12-31T10:06:52.058Z,100315.06
2023-12-31T10:10:15.620Z,100313.00
2023-12-31T10:13:41.960Z,100298.03
2023-12-31T10:17:08.420Z,100296.47
2023-12-31T10:20:32.005Z,100305.59
2023-12-31T10:23:56.206Z,100304.06
2023-12-31T10:27:19.504Z,100285.19
2023-12-31T10:30:47.352Z,100293.31
2023-12-31T10:34:17.470Z,100297.66
2023-12-31T10:37:49.681Z,100275.88
2023-12-31T10:41:16.473Z,100267.31
2023-12-31T10:44:39.283Z,100272.78
2023-12-31T10:48:03.190Z,100257.31
2023-12-31T10:51:32.474Z,100247.19
2023-12-31T10:54:58.035Z,100246.41
2023-12-31T10:58:22.188Z,100233.41
2023-12-31T11:01:45.647Z,100229.22
2023-12-31T11:05:11.263Z,100220.78
2023-12-31T11:08:34.071Z,100213.97
2023-12-31T11:11:56.765Z,100220.81
2023-12-31T11:15:26.364Z,100215.03
2023-12-31T11:19:34.368Z,100201.84
2023-12-31T11:23:01.155Z,100197.78
2023-12-31T11:26:23.908Z,100187.38
2023-12-31T11:29:47.462Z,100180.94
2023-12-31T11:33:11.606Z,100185.28
2023-12-31T11:36:34.419Z,100175.50
2023-12-31T11:39:59.510Z,100161.12
2023-12-31T11:43:26.796Z,100155.19
2023-12-31T11:46:51.571Z,100149.97
2023-12-31T11:50:23.069Z,100156.09
2023-12-31T11:53:49.831Z,100144.28
2023-12-31T11:57:14.851Z,100140.91
2023-12-31T12:00:40.854Z,100136.66
2023-12-31T12:04:04.844Z,100130.19
2023-12-31T12:07:28.659Z,100127.19
2023-12-31T12:10:54.051Z,100123.78
2023-12-31T12:14:16.261Z,100117.47
2023-12-31T12:17:41.159Z,100109.06
2023-12-31T12:21:06.156Z,100089.50
2023-12-31T12:24:32.199Z,100103.31
2023-12-31T12:27:59.328Z,100097.91
2023-12-31T12:31:24.354Z,100094.63
2023-12-31T12:34:51.613Z,100092.59
2023-12-31T12:38:17.378Z,100087.03
2023-12-31T12:41:43.379Z,100079.75
2023-12-31T12:45:15.539Z,100070.31
2023-12-31T12:48:41.665Z,100053.66
2023-12-31T12:52:07.487Z,100057.75
2023-12-31T12:55:30.305Z,100050.25
2023-12-31T12:58:54.912Z,100047.81
2023-12-31T13:02:19.747Z,100043.44
2023-12-31T13:05:45.208Z,100030.41
2023-12-31T13:09:08.047Z,100030.22
2023-12-31T13:12:30.884Z,100022.53
2023-12-31T13:16:00.139Z,100017.66
2023-12-31T13:19:25.741Z,100009.69
2023-12-31T13:22:48.414Z,99997.75
2023-12-31T13:26:11.272Z,99994.37
2023-12-31T13:29:33.929Z,99984.53
2023-12-31T13:33:01.100Z,99978.56
2023-12-31T13:36:23.896Z,99968.94
2023-12-31T13:39:46.663Z,99966.91
2023-12-31T13:43:09.674Z,99965.00
2023-12-31T13:46:35.404Z,99950.69
2023-12-31T13:49:59.499Z,99948.72
2023-12-31T13:53:22.540Z,99955.06
2023-12-31T13:56:45.228Z,99946.56
2023-12-31T14:00:13.594Z,99938.25
2023-12-31T14:03:36.895Z,99936.62
2023-12-31T14:07:03.588Z,99929.06
2023-12-31T14:10:26.346Z,99929.06
2023-12-31T14:13:48.953Z,99920.72
2023-12-31T14:17:13.128Z,99929.59
2023-12-31T14:20:35.734Z,99918.44
2023-12-31T14:24:00.479Z,99913.53
2023-12-31T14:27:25.740Z,99906.44
2023-12-31T14:30:49.095Z,99897.38
2023-12-31T14:34:17.730Z,99897.13
2023-12-31T14:37:41.533Z,99893.25
2023-12-31T14:41:07.734Z,99885.22
2023-12-31T14:44:32.776Z,99874.22
2023-12-31T14:47:56.935Z,99878.41
2023-12-31T14:51:24.080Z,99869.78
2023-12-31T14:54:49.791Z,99864.00
2023-12-31T14:58:20.548Z,99876.97
2023-12-31T15:01:46.136Z,99868.06
2023-12-31T15:05:17.294Z,99862.34
2023-12-31T15:08:41.276Z,99860.06
2023-12-31T15:12:04.752Z,99859.88
2023-12-31T15:15:28.777Z,99863.28
2023-12-31T15:18:51.629Z,99856.09
2023-12-31T15:22:14.250Z,99855.87
2023-12-31T15:25:36.738Z,99854.84
2023-12-31T15:28:59.550Z,99848.03
2023-12-31T15:32:23.662Z,99857.94
2023-12-31T15:35:48.325Z,99858.03
2023-12-31T15:39:16.295Z,99858.19
2023-12-31T15:42:38.793Z,99858.56
2023-12-31T15:46:01.604Z,99851.97
2023-12-31T15:49:25.332Z,99848.53
2023-12-31T15:52:48.691Z,99855.06
2023-12-31T15:56:12.711Z,99846.56
2023-12-31T15:59:38.220Z,99840.66
2023-12-31T16:03:00.842Z,99839.34
2023-12-31T16:06:25.304Z,99825.94
2023-12-31T16:09:48.158Z,99838.81
2023-12-31T16:13:11.561Z,99837.88
2023-12-31T16:16:34.291Z,99828.81
2023-12-31T16:19:58.408Z,99831.22
2023-12-31T16:23:25.941Z,99836.53
2023-12-31T16:26:48.524Z,99825.47
2023-12-31T16:30:13.205Z,99826.34
2023-12-31T16:33:36.313Z,99825.16
2023-12-31T16:36:58.722Z,99827.31
2023-12-31T16:40:23.223Z,99820.91
2023-12-31T16:43:45.679Z,99821.09
2023-12-31T16:47:09.071Z,99813.94
2023-12-31T16:50:31.486Z,99817.69
2023-12-31T16:53:56.327Z,99820.63
2023-12-31T16:57:23.393Z,99811.75
2023-12-31T17:00:52.208Z,99810.28
2023-12-31T17:04:16.657Z,99813.16
2023-12-31T17:07:42.087Z,99813.13
2023-12-31T17:11:04.425Z,99799.88
2023-12-31T17:14:36.561Z,99802.75
2023-12-31T17:18:01.129Z,99807.66
2023-12-31T17:21:24.200Z,99815.56
2023-12-31T17:24:47.955Z,99806.78
2023-12-31T17:28:14.388Z,99810.63
2023-12-31T17:31:40.966Z,99804.66
2023-12-31T17:35:04.017Z,99812.94
2023-12-31T17:38:29.258Z,99796.22
2023-12-31T17:41:54.561Z,99791.00
2023-12-31T17:45:17.276Z,99788.19
2023-12-31T17:48:41.615Z,99791.53
2023-12-31T17:52:04.558Z,99788.50
2023-12-31T17:55:27.178Z,99794.75
2023-12-31T17:58:52.177Z,99783.69
2023-12-31T18:02:15.378Z,99781.59
2023-12-31T18:05:47.620Z,99780.66
2023-12-31T18:09:13.078Z,99780.09
2023-12-31T18:12:36.094Z,99776.56
2023-12-31T18:16:00.066Z,99778.59
2023-12-31T18:19:24.059Z,99771.84
2023-12-31T18:22:48.254Z,99782.25
2023-12-31T18:26:13.668Z,99768.91
2023-12-31T18:29:39.304Z,99770.63
2023-12-31T18:33:08.441Z,99763.31
2023-12-31T18:36:35.031Z,99764.84
2023-12-31T18:39:59.248Z,99766.75
2023-12-31T18:43:21.977Z,99763.63
2023-12-31T18:46:44.825Z,99758.91
2023-12-31T18:50:08.351Z,99758.47
2023-12-31T18:53:31.192Z,99753.44
2023-12-31T18:56:57.969Z,99746.47
2023-12-31T19:00:20.860Z,99742.69
2023-12-31T19:03:49.101Z,99752.22
2023-12-31T19:07:11.919Z,99741.47
2023-12-31T19:10:34.661Z,99740.63
2023-12-31T19:14:02.017Z,99741.09
2023-12-31T19:17:24.474Z,99741.37
2023-12-31T19:20:47.454Z,99732.94
2023-12-31T19:24:10.170Z,99730.66
2023-12-31T19:27:33.411Z,99722.03
2023-12-31T19:30:57.184Z,99724.34
2023-12-31T19:34:20.050Z,99728.31
2023-12-31T19:37:42.675Z,99723.50
2023-12-31T19:41:05.401Z,99728.44
2023-12-31T19:44:35.579Z,99724.78
2023-12-31T19:48:01.370Z,99716.41
2023-12-31T19:51:23.862Z,99712.94
2023-12-31T19:54:46.617Z,99711.72
2023-12-31T19:58:09.442Z,99722.28
2023-12-31T20:01:32.865Z,99717.28
2023-12-31T20:04:57.277Z,99732.72
2023-12-31T20:08:25.110Z,99716.34
2023-12-31T20:11:48.044Z,99720.03
2023-12-31T20:15:11.062Z,99721.56
2023-12-31T20:18:33.683Z,99714.00
2023-12-31T20:21:57.817Z,99705.81
2023-12-31T20:25:20.326Z,99709.28
2023-12-31T20:28:42.977Z,99700.31
2023-12-31T20:32:07.280Z,99710.50
2023-12-31T20:35:29.936Z,99700.56
2023-12-31T20:38:54.351Z,99700.72
2023-12-31T20:42:25.201Z,99693.94
2023-12-31T20:45:50.951Z,99695.03
2023-12-31T20:49:13.368Z,99694.00
2023-12-31T20:52:39.025Z,99695.03
2023-12-31T20:56:02.696Z,99683.47
2023-12-31T20:59:25.525Z,99682.69
2023-12-31T21:02:48.452Z,99688.13
2023-12-31T21:06:14.653Z,99691.16
2023-12-31T21:09:37.719Z,99697.72
2023-12-31T21:13:02.092Z,99700.16
2023-12-31T21:16:24.588Z,99702.41
2023-12-31T21:19:47.202Z,99709.66
2023-12-31T21:26:34.935Z,99700.31
2023-12-31T21:29:58.781Z,99700.09
2023-12-31T21:33:21.644Z,99702.91
2023-12-31T21:36:44.078Z,99709.53
2023-12-31T21:40:12.267Z,99707.38
2023-12-31T21:43:34.748Z,99704.13
2023-12-31T21:46:59.391Z,99700.09
2023-12-31T21:50:22.116Z,99697.38
2023-12-31T21:53:47.958Z,99702.22
2023-12-31T21:57:11.471Z,99700.31
2023-12-31T22:00:38.225Z,99701.59
2023-12-31T22:04:05.074Z,99704.97
2023-12-31T22:07:27.831Z,99696.81
2023-12-31T22:10:50.827Z,99693.50
2023-12-31T22:14:13.364Z,99703.72
2023-12-31T22:17:35.983Z,99693.00
2023-12-31T22:21:02.505Z,99699.84
2023-12-31T22:24:28.619Z,99696.66
2023-12-31T22:27:51.399Z,99686.19
2023-12-31T22:31:14.307Z,99683.50
2023-12-31T22:34:38.096Z,99682.91
2023-12-31T22:38:02.974Z,99680.25
2023-12-31T22:41:28.544Z,99684.59
2023-12-31T22:44:51.263Z,99680.72
2023-12-31T22:48:15.467Z,99687.53
2023-12-31T22:51:39.322Z,99680.97
2023-12-31T22:55:03.268Z,99679.50
2023-12-31T22:58:25.845Z,99686.31
2023-12-31T23:01:55.527Z,99676.28
2023-12-31T23:05:21.836Z,99681.94
2023-12-31T23:08:45.423Z,99676.75
2023-12-31T23:12:09.888Z,99675.72
2023-12-31T23:15:32.299Z,99669.19
2023-12-31T23:18:58.282Z,99665.63
2023-12-31T23:22:20.638Z,99665.69
2023-12-31T23:25:45.863Z,99665.34
2023-12-31T23:29:09.728Z,99663.13
2023-12-31T23:32:32.626Z,99658.59
2023-12-31T23:35:55.127Z,99660.66
2023-12-31T23:39:20.514Z,99652.97
2023-12-31T23:42:44.221Z,99648.75
2023-12-31T23:46:08.496Z,99650.63
2023-12-31T23:49:33.546Z,99642.37
2023-12-31T23:52:56.344Z,99645.41
2023-12-31T23:56:18.981Z,99636.13
2023-12-31T23:59:41.502Z,99632.88
